Latest Weather Observations for Falls Creek

IDV60801

Issued at 10:52 pm EDT Monday 27 January 2020 (issued every 10 minutes, with the page automatically refreshed every 10 minutes)

About weather observations | Map of weather stations | Latest weather observations for VIC | Other Formats
Station Details ID: 083084 Name: FALLS CREEK Lat: -36.87 Lon: 147.28 Height: 1765.0 m
Data from the previous 72 hours. | See also: Recent months at Falls Creek
Date/Time
EDT
Temp
°C
App
Temp
°C
Dew
Point
°C
Rel
Hum
%
Delta-T
°C
Wind Press
QNH
hPa
Press
MSL
hPa
Rain since
9am
mm
Dir  Spd
km/h
Gust
km/h
Spd
kts
Gust
kts
27/10:30pm 15.4 11.4 -2.1 30 7.9 NNW 9 13 5 7 1021.5 1013.1 0.0
27/10:00pm 15.6 12.1 -1.0 32 7.6 NNW 7 11 4 6 1021.5 1013.1 0.0
27/09:30pm 15.4 11.4 0.8 37 7.0 W 11 15 6 8 1021.3 1012.9 0.0
27/09:00pm 15.7 11.4 1.1 37 7.0 WNW 13 15 7 8 1021.2 1012.7 0.0
27/08:30pm 16.1 12.7 1.8 38 7.0 NNW 9 11 5 6 1021.3 1012.9 0.0
27/08:00pm 16.4 13.5 2.4 39 6.9 N 7 9 4 5 1021.2 1012.7 0.0
27/07:30pm 16.9 13.6 2.5 38 7.2 NNW 9 15 5 8 1021.1 1012.6 0.0
27/07:00pm 17.4 13.8 3.0 38 7.3 NNW 11 17 6 9 1020.9 1012.5 0.0
27/06:30pm 17.9 14.3 3.0 37 7.6 NNW 11 19 6 10 1020.9 1012.5 0.0
27/06:00pm 18.2 13.3 4.0 39 7.4 NNW 19 26 10 14 1020.8 1012.4 0.0
27/05:30pm 19.0 14.0 4.4 38 7.7 N 20 33 11 18 1020.5 1012.0 0.0
27/05:00pm 18.8 13.3 4.2 38 7.6 N 22 30 12 16 1020.8 1012.4 0.0
27/04:30pm 20.9 17.1 5.7 37 8.3 NW 15 30 8 16 1020.9 1012.5 0.0
27/04:00pm 20.3 16.2 4.4 35 8.4 NNW 15 24 8 13 1021.1 1012.6 0.0
27/03:30pm 18.9 13.5 4.3 38 7.7 N 22 35 12 19 1021.1 1012.6 0.0
27/03:00pm 19.4 14.6 4.4 37 7.9 NNW 19 30 10 16 1021.1 1012.6 0.0
27/02:30pm 20.0 15.5 7.1 43 7.2 NNW 20 32 11 17 1021.3 1012.9 0.0
27/02:00pm 18.7 13.6 7.8 49 6.1 N 24 41 13 22 1021.3 1012.9 0.0
27/01:30pm 18.8 14.4 9.0 53 5.6 N 22 33 12 18 1021.7 1013.2 0.0
27/01:00pm 18.6 14.8 9.7 56 5.1 NNW 20 35 11 19 1021.7 1013.2 0.0
27/12:30pm 18.2 15.2 10.6 61 4.5 NW 17 26 9 14 1021.7 1013.2 0.0
27/12:00pm 17.7 13.9 9.8 60 4.5 NW 20 35 11 19 1021.9 1013.5 0.0
27/11:30am 17.2 12.6 9.6 61 4.4 NNW 24 37 13 20 1021.8 1013.4 0.0
27/11:00am 16.6 11.5 9.3 62 4.1 NW 26 43 14 23 1021.7 1013.2 0.0
27/10:30am 16.7 13.0 10.1 65 3.8 NW 20 33 11 18 1021.5 1013.1 0.0
27/10:00am 15.6 9.9 8.4 62 4.0 NW 28 44 15 24 1021.7 1013.2 0.0
27/09:30am 15.5 10.0 9.2 66 3.6 NNW 28 43 15 23 1021.3 1012.9 0.0
27/09:00am 14.9 9.3 8.8 67 3.4 NNW 28 46 15 25 1021.3 1012.9 0.0
27/08:36am 14.5 8.9 8.9 69 3.1 NW 28 46 15 25 1021.1 1012.6 0.0
27/08:30am 14.4 8.4 8.8 69 3.1 NW 30 46 16 25 1020.8 1012.4 0.0
27/08:29am 14.4 8.8 8.8 69 3.1 NNW 28 46 15 25 1020.8 1012.4 0.0
27/08:00am 13.8 7.7 8.2 69 3.1 NW 30 39 16 21 1020.5 1012.0 0.0
27/07:30am 13.4 7.1 7.6 68 3.1 NW 30 37 16 20 1020.6 1012.1 0.0
27/07:00am 13.5 6.8 7.5 67 3.2 NW 32 41 17 22 1020.3 1011.9 0.0
27/06:30am 13.0 6.6 6.8 66 3.3 NW 30 35 16 19 1020.2 1011.8 0.0
27/06:00am 12.7 7.5 7.2 69 2.9 NNW 24 33 13 18 1020.1 1011.6 0.0
27/05:30am 13.2 8.0 7.4 68 3.1 NW 24 32 13 17 1020.2 1011.8 0.0
27/05:00am 13.4 8.2 7.2 66 3.3 NW 24 30 13 16 1019.9 1011.4 0.0
27/04:30am 13.3 8.9 7.3 67 3.2 NW 20 26 11 14 1019.9 1011.4 0.0
27/04:00am 13.5 9.3 7.5 67 3.2 NNW 19 24 10 13 1020.0 1011.5 0.0
27/03:30am 13.9 9.5 7.2 64 3.6 NW 20 24 11 13 1020.2 1011.8 0.0
27/03:00am 13.8 9.6 7.6 66 3.4 NW 19 22 10 12 1020.5 1012.0 0.0
27/02:30am 13.8 9.6 7.6 66 3.4 NW 19 22 10 12 1020.7 1012.3 0.0
27/02:00am 14.0 10.5 7.3 64 3.6 NNW 15 19 8 10 1020.8 1012.4 0.0
27/01:30am 14.1 10.6 7.4 64 3.6 NW 15 19 8 10 1020.9 1012.5 0.0
27/01:00am 13.7 10.6 7.2 65 3.5 NW 13 17 7 9 1021.4 1013.0 0.0
27/12:30am 13.9 10.8 7.4 65 3.5 NW 13 17 7 9 1021.7 1013.2 0.0
27/12:00am 14.3 11.8 6.4 59 4.2 NNW 9 13 5 7 1021.9 1013.5 0.0
 
Date/Time
EDT
Temp
°C
App
Temp
°C
Dew
Point
°C
Rel
Hum
%
Delta-T
°C
Wind Press
QNH
hPa
Press
MSL
hPa
Rain since
9am
mm
Dir  Spd
km/h
Gust
km/h
Spd
kts
Gust
kts
26/11:30pm 14.4 11.7 5.7 56 4.6 NNW 9 13 5 7 1022.0 1013.6 0.0
26/11:00pm 14.4 11.6 5.2 54 4.8 NW 9 13 5 7 1022.1 1013.7 0.0
26/10:30pm 14.7 11.9 5.0 52 5.0 NW 9 13 5 7 1022.1 1013.7 0.0
26/10:00pm 15.1 11.9 5.0 51 5.2 NW 11 13 6 7 1022.0 1013.6 0.0
26/09:30pm 15.2 12.0 4.9 50 5.3 NNW 11 15 6 8 1021.9 1013.5 0.0
26/09:00pm 15.4 11.9 5.6 52 5.1 NNW 13 17 7 9 1021.5 1013.1 0.0
26/08:30pm 15.3 12.6 5.5 52 5.1 NNW 9 13 5 7 1021.2 1012.7 0.0
26/08:00pm 16.1 12.5 5.1 48 5.7 NNW 13 19 7 10 1021.1 1012.6 0.0
26/07:30pm 16.4 12.8 5.1 47 5.9 NNW 13 17 7 9 1020.9 1012.5 0.0
26/07:00pm 16.8 13.3 5.4 47 6.0 NNW 13 20 7 11 1020.9 1012.5 0.0
26/06:30pm 17.6 13.6 4.9 43 6.7 NNW 15 22 8 12 1020.5 1012.0 0.0
26/06:00pm 18.6 15.1 5.5 42 7.0 NNW 13 26 7 14 1020.5 1012.0 0.0
26/05:30pm 19.1 15.2 5.2 40 7.4 N 15 26 8 14 1020.5 1012.0 0.0
26/05:00pm 18.8 14.4 4.6 39 7.5 N 17 26 9 14 1020.1 1011.6 0.0
26/04:30pm 19.6 16.7 6.4 42 7.2 NNW 11 20 6 11 1020.3 1011.9 0.0
26/04:00pm 19.3 15.9 5.7 41 7.3 NNW 13 26 7 14 1020.5 1012.0 0.0
26/03:30pm 19.5 15.6 6.9 44 7.0 NNW 17 35 9 19 1020.5 1012.0 0.0
26/03:00pm 18.9 14.4 7.0 46 6.6 NNW 20 39 11 21 1020.1 1011.6 0.0
26/02:30pm 18.2 13.0 7.3 49 6.0 N 24 35 13 19 1020.0 1011.5 0.0
26/02:00pm 18.2 13.7 8.7 54 5.4 NNW 22 41 12 22 1020.1 1011.6 0.0
26/01:30pm 17.1 11.6 7.7 54 5.2 N 26 37 14 20 1020.0 1011.5 0.0
26/01:00pm 16.6 11.9 7.8 56 4.9 NNW 22 35 12 19 1020.1 1011.6 0.0
26/12:30pm 16.7 11.9 7.4 54 5.1 NNW 22 35 12 19 1020.7 1012.3 0.0
26/12:00pm 16.2 11.9 7.9 58 4.6 NNW 20 39 11 21 1020.5 1012.0 0.0
26/11:30am 15.8 10.7 7.8 59 4.4 NNW 24 39 13 21 1020.6 1012.1 0.0
26/11:00am 15.2 9.9 7.0 58 4.4 NNW 24 39 13 21 1020.2 1011.8 0.0
26/10:30am 14.9 9.9 6.5 57 4.5 NNW 22 37 12 20 1020.1 1011.6 0.0
26/10:00am 14.2 8.8 6.3 59 4.2 NNW 24 37 13 20 1020.2 1011.8 0.0
26/09:30am 13.9 9.1 5.8 58 4.2 NW 20 32 11 17 1019.8 1011.3 0.0
26/09:00am 13.7 8.8 5.3 57 4.3 NW 20 33 11 18 1019.6 1011.2 0.0
26/08:30am 12.5 6.7 4.5 58 4.0 NW 24 33 13 18 1019.3 1010.8 0.0
26/08:00am 11.8 6.0 4.5 61 3.7 NW 24 32 13 17 1019.3 1010.8 0.0
26/07:30am 11.2 5.1 4.7 64 3.3 NW 26 33 14 18 1019.2 1010.7 0.0
26/07:00am 10.8 4.7 4.7 66 3.1 NW 26 32 14 17 1018.9 1010.4 0.0
26/06:30am 10.7 4.2 4.6 66 3.0 NW 28 33 15 18 1018.6 1010.0 0.0
26/06:00am 10.9 4.3 4.4 64 3.2 NW 28 35 15 19 1018.4 1009.9 0.0
26/05:30am 11.0 4.9 4.9 66 3.1 NNW 26 32 14 17 1018.1 1009.6 0.0
26/05:00am 11.9 5.9 5.3 64 3.4 NNW 26 32 14 17 1018.1 1009.6 0.0
26/04:30am 12.4 6.7 4.9 60 3.8 NNW 24 32 13 17 1018.1 1009.6 0.0
26/04:00am 12.7 6.6 4.7 58 4.1 NNW 26 32 14 17 1018.2 1009.7 0.0
26/03:30am 12.7 6.6 4.9 59 4.0 NNW 26 32 14 17 1018.3 1009.8 0.0
26/03:00am 13.0 7.3 4.7 57 4.2 NNW 24 30 13 16 1018.6 1010.0 0.0
26/02:30am 13.3 7.5 4.2 54 4.6 NNW 24 30 13 16 1018.7 1010.2 0.0
26/02:00am 13.1 7.7 4.5 56 4.4 NNW 22 26 12 14 1019.2 1010.7 0.0
26/01:30am 12.6 7.7 4.3 57 4.2 N 19 24 10 13 1019.3 1010.8 0.0
26/01:00am 12.7 8.2 4.2 56 4.3 NNE 17 20 9 11 1019.6 1011.2 0.0
26/12:30am 12.7 8.4 5.4 61 3.8 NNE 17 19 9 10 1019.9 1011.4 0.0
26/12:00am 12.8 10.8 6.2 64 3.5 NNW 6 9 3 5 1020.1 1011.6 0.0
 
Date/Time
EDT
Temp
°C
App
Temp
°C
Dew
Point
°C
Rel
Hum
%
Delta-T
°C
Wind Press
QNH
hPa
Press
MSL
hPa
Rain since
9am
mm
Dir  Spd
km/h
Gust
km/h
Spd
kts
Gust
kts
25/11:30pm 12.5 11.3 6.5 67 3.2 NW 2 4 1 2 1020.2 1011.8 0.0
25/11:00pm 11.5 10.9 7.4 76 2.2 CALM 0 4 0 2 1020.7 1012.3 0.0
25/10:30pm 10.6 8.7 7.7 82 1.5 SE 7 9 4 5 1020.7 1012.3 0.0
25/10:00pm 11.6 9.9 7.5 76 2.2 SE 6 7 3 4 1020.7 1012.3 0.0
25/09:30pm 13.5 12.4 6.8 64 3.6 S 2 4 1 2 1020.5 1012.0 0.0
25/09:00pm 13.5 12.4 6.8 64 3.6 SSW 2 2 1 1 1020.2 1011.8 0.0
25/08:30pm 14.1 13.1 7.2 63 3.7 NNW 2 6 1 3 1020.1 1011.6 0.0
25/08:00pm 15.2 12.9 7.5 60 4.2 W 9 13 5 7 1020.0 1011.5 0.0
25/07:30pm 16.4 14.9 8.4 59 4.5 NW 6 9 3 5 1019.8 1011.3 0.0
25/07:00pm 15.7 13.8 7.5 58 4.5 NNW 7 13 4 7 1019.4 1010.9 0.0
25/06:30pm 16.3 14.0 7.5 56 4.8 N 9 15 5 8 1019.2 1010.7 0.0
25/06:00pm 17.7 15.8 7.4 51 5.7 NW 7 17 4 9 1019.2 1010.7 0.0
25/05:30pm 16.7 13.8 6.5 51 5.5 N 11 17 6 9 1019.3 1010.8 0.0
25/05:00pm 16.6 13.4 7.0 53 5.2 N 13 19 7 10 1019.4 1010.9 0.0
25/04:30pm 16.9 13.7 6.7 51 5.5 N 13 20 7 11 1019.4 1010.9 0.0
25/04:00pm 15.9 11.8 6.1 52 5.2 N 17 26 9 14 1019.4 1010.9 0.0
25/03:30pm 17.3 13.8 7.1 51 5.6 NNW 15 22 8 12 1019.4 1010.9 0.0
25/03:00pm 16.5 13.5 7.7 56 4.8 NNW 13 20 7 11 1019.5 1011.0 0.0
25/02:30pm 16.2 13.1 7.2 55 4.9 NNW 13 20 7 11 1019.6 1011.2 0.0
25/02:00pm 16.3 13.4 8.0 58 4.6 NNW 13 22 7 12 1019.9 1011.4 0.0
25/01:30pm 15.5 12.6 8.3 62 4.0 NNW 13 22 7 12 1020.1 1011.6 0.0
25/01:00pm 14.7 12.5 7.7 63 3.8 NNW 9 19 5 10 1020.0 1011.5 0.0
25/12:30pm 13.7 10.5 7.0 64 3.6 NNW 13 22 7 12 1020.2 1011.8 0.0
25/12:00pm 12.8 8.7 6.2 64 3.5 N 17 26 9 14 1020.0 1011.5 0.0
25/11:30am 12.1 7.9 5.5 64 3.4 N 17 24 9 13 1019.9 1011.4 0.0
25/11:00am 12.3 8.2 6.1 66 3.2 NNW 17 28 9 15 1019.9 1011.4 0.0
25/10:30am 11.4 6.0 4.6 63 3.4 N 22 32 12 17 1019.4 1010.9 0.0
25/10:00am 12.3 6.2 3.0 53 4.5 NNW 24 41 13 22 1019.3 1010.8 0.0
25/09:30am 11.6 5.5 2.9 55 4.2 NW 24 37 13 20 1019.3 1010.8 0.0
25/09:00am 10.5 4.2 1.6 54 4.2 NW 24 37 13 20 1019.2 1010.7 0.2
25/08:30am 9.4 2.5 2.5 62 3.3 NW 28 39 15 21 1018.9 1010.4 0.2
25/08:22am 9.5 2.1 2.1 60 3.5 NW 30 48 16 26 1018.8 1010.3 0.2
25/08:00am 9.3 0.9 1.7 59 3.5 NW 35 44 19 24 1018.4 1009.9 0.2
25/07:30am 9.2 0.4 1.4 58 3.6 NW 37 43 20 23 1018.0 1009.4 0.2
25/07:00am 8.4 -0.1 1.1 60 3.3 NW 35 44 19 24 1017.9 1009.3 0.2
25/06:30am 7.7 -0.8 1.1 63 3.0 NW 35 43 19 23 1017.7 1009.2 0.2
25/06:00am 7.0 -1.2 2.5 73 2.1 NW 35 43 19 23 1017.6 1009.1 0.2
25/05:30am 7.1 -0.7 2.8 74 2.0 NW 33 43 18 23 1017.6 1009.1 0.2
25/05:00am 7.1 -0.5 2.6 73 2.1 NNW 32 43 17 23 1017.5 1008.9 0.2
25/04:30am 7.2 -0.1 2.5 72 2.2 NNW 30 39 16 21 1017.6 1009.1 0.2
25/04:00am 7.5 -0.1 2.6 71 2.3 NNW 32 39 17 21 1017.6 1009.1 0.2
25/03:30am 8.0 0.1 2.3 67 2.7 NNW 33 43 18 23 1017.6 1009.1 0.2
25/03:00am 8.4 -0.3 2.0 64 3.0 NNW 37 50 20 27 1017.4 1008.8 0.2
25/02:30am 7.6 0.3 2.7 71 2.3 NNW 30 39 16 21 1017.7 1009.2 0.2
25/02:00am 7.5 1.1 3.0 73 2.1 NNW 26 35 14 19 1018.0 1009.4 0.2
25/01:30am 8.1 1.2 2.8 69 2.5 NNW 28 35 15 19 1018.0 1009.4 0.2
25/01:00am 8.0 2.3 2.7 69 2.5 NNW 22 30 12 16 1018.0 1009.4 0.2
25/12:30am 7.6 3.2 2.9 72 2.2 N 15 20 8 11 1018.4 1009.9 0.2
25/12:00am 7.9 4.3 2.8 70 2.4 N 11 13 6 7 1018.8 1010.3 0.2
 
Date/Time
EDT
Temp
°C
App
Temp
°C
Dew
Point
°C
Rel
Hum
%
Delta-T
°C
Wind Press
QNH
hPa
Press
MSL
hPa
Rain since
9am
mm
Dir  Spd
km/h
Gust
km/h
Spd
kts
Gust
kts
24/11:30pm 8.2 5.9 2.7 68 2.6 NW 4 6 2 3 1018.9 1010.4 0.2
24/11:00pm 8.5 6.2 2.5 66 2.8 NW 4 6 2 3 1019.0 1010.5 0.2

Other formats

Comma delimited format used in spreadsheet applications
http://www.bom.gov.au/fwo/IDV60801/IDV60801.94903.axf

JavaScript Object Notation format (JSON) in row-major order
http://www.bom.gov.au/fwo/IDV60801/IDV60801.94903.json

Data quality

Most of these data are generated automatically and are frequently updated. Quality checks on data are not normally performed. It is possible for incorrect values to appear. Refer to information at About Latest Weather Observations and please check the disclaimer before using these data.